Time;durP1;ratioP1;P1;durP2;ratioP2;P2;SDS_P1;SDS_P2;PMS_P1;PMS_P2;Temp;Humidity;BMP_temperature;BMP_pressure;BME280_temperature;BME280_humidity;BME280_pressure;Samples;Min_cycle;Max_cycle;Signal;HPM_P1;HPM_P2
2022/06/15 00:01:12;;;;;;;4.05;1.75;;;15.60;65.20;;;;;;5113901;28;20110;-37
2022/06/15 00:03:38;;;;;;;7.75;2.10;;;15.50;65.50;;;;;;5113830;28;20027;-37
2022/06/15 00:06:11;;;;;;;6.18;2.92;;;15.40;65.80;;;;;;5113783;28;20027;-38
2022/06/15 00:08:37;;;;;;;3.92;1.98;;;15.40;66.10;;;;;;5113885;28;20024;-37
2022/06/15 00:11:05;;;;;;;8.07;2.88;;;15.50;66.10;;;;;;5113656;28;20042;-37
2022/06/15 00:13:32;;;;;;;11.07;2.00;;;15.50;66.00;;;;;;5113694;28;20023;-38
2022/06/15 00:15:57;;;;;;;8.73;2.67;;;15.40;66.10;;;;;;5113562;28;20052;-37
2022/06/15 00:18:23;;;;;;;5.95;2.58;;;15.30;66.30;;;;;;5113937;28;20096;-37
2022/06/15 00:20:48;;;;;;;3.53;2.17;;;15.30;66.40;;;;;;5113534;28;20038;-37
2022/06/15 00:23:14;;;;;;;4.47;1.90;;;15.30;66.30;;;;;;5113424;28;20020;-37
2022/06/15 00:25:40;;;;;;;12.77;3.13;;;15.30;66.60;;;;;;5113449;28;20030;-37
2022/06/15 00:28:05;;;;;;;7.40;3.30;;;15.20;66.90;;;;;;5113697;28;20482;-38
2022/06/15 00:30:31;;;;;;;8.43;2.45;;;15.20;67.00;;;;;;5113860;28;20347;-38
2022/06/15 00:32:56;;;;;;;7.82;2.75;;;15.20;66.90;;;;;;5113536;28;20510;-38
2022/06/15 00:35:22;;;;;;;5.25;2.22;;;15.20;66.90;;;;;;5113596;28;20019;-38
2022/06/15 00:37:48;;;;;;;3.17;1.98;;;15.20;66.90;;;;;;5112856;28;20019;-38
2022/06/15 00:40:13;;;;;;;6.95;2.65;;;15.10;67.10;;;;;;5113360;28;20027;-37
2022/06/15 00:42:39;;;;;;;3.58;1.95;;;15.10;67.00;;;;;;5113287;28;20020;-37
2022/06/15 00:45:05;;;;;;;7.88;3.10;;;15.20;67.10;;;;;;5113857;28;20072;-38
2022/06/15 00:47:35;;;;;;;6.65;1.95;;;15.30;66.90;;;;;;5112278;28;20027;-37
2022/06/15 00:50:08;;;;;;;10.70;2.47;;;15.20;67.10;;;;;;5113336;28;20462;-37
2022/06/15 00:52:50;;;;;;;7.20;2.40;;;15.10;67.30;;;;;;5113722;28;20066;-37
2022/06/15 00:55:23;;;;;;;5.38;2.63;;;15.00;67.50;;;;;;5113201;28;20475;-37
2022/06/15 00:57:50;;;;;;;5.10;2.00;;;15.00;67.70;;;;;;5113755;28;20474;-37
2022/06/15 01:00:16;;;;;;;9.23;2.15;;;15.00;67.80;;;;;;5111813;28;20020;-41
2022/06/15 01:02:42;;;;;;;10.02;3.65;;;14.80;68.00;;;;;;5114451;28;20031;-37
2022/06/15 01:05:16;;;;;;;8.20;2.72;;;14.80;68.20;;;;;;5116975;28;20494;-37
2022/06/15 01:08:14;;;;;;;5.38;2.35;;;14.90;68.30;;;;;;5117422;28;20032;-37
2022/06/15 01:10:57;;;;;;;7.20;3.08;;;14.80;68.50;;;;;;5117135;28;20019;-37
2022/06/15 01:13:22;;;;;;;8.68;2.47;;;14.80;68.80;;;;;;5116976;28;20055;-37
2022/06/15 01:16:07;;;;;;;5.18;3.47;;;14.70;69.10;;;;;;5116664;28;20174;-37
2022/06/15 01:18:56;;;;;;;4.68;2.83;;;14.70;69.10;;;;;;5116718;28;20077;-37
2022/06/15 01:22:02;;;;;;;5.18;2.83;;;14.60;69.40;;;;;;5117358;28;20023;-37
2022/06/15 01:24:40;;;;;;;9.18;2.60;;;14.50;69.70;;;;;;5094193;28;20035;-38
2022/06/15 01:27:30;;;;;;;14.90;2.85;;;14.50;69.80;;;;;;5113720;28;20131;-38
2022/06/15 01:30:07;;;;;;;8.57;2.78;;;14.40;70.00;;;;;;5116607;28;20026;-37
2022/06/15 01:33:01;;;;;;;7.88;2.85;;;14.40;70.20;;;;;;5116561;28;20544;-38
2022/06/15 01:36:05;;;;;;;6.50;2.60;;;14.30;70.30;;;;;;5116358;28;20043;-37
2022/06/15 01:38:55;;;;;;;6.72;2.47;;;14.30;70.60;;;;;;5107989;28;20051;-39
2022/06/15 01:41:34;;;;;;;6.63;2.90;;;14.30;70.50;;;;;;5116823;28;20020;-38
2022/06/15 01:44:08;;;;;;;6.70;2.75;;;14.30;70.60;;;;;;5116591;28;20019;-38
2022/06/15 01:46:38;;;;;;;13.32;2.88;;;14.20;70.70;;;;;;5116725;28;20027;-37
2022/06/15 01:49:05;;;;;;;3.78;2.35;;;14.20;70.90;;;;;;5117203;28;20062;-38
2022/06/15 01:51:35;;;;;;;4.80;2.45;;;14.20;70.80;;;;;;5116481;28;20145;-37
2022/06/15 01:54:07;;;;;;;13.10;3.17;;;14.20;70.80;;;;;;5116413;28;20161;-37
2022/06/15 01:56:40;;;;;;;5.93;2.35;;;14.20;71.00;;;;;;5116419;28;20059;-37
2022/06/15 01:59:20;;;;;;;8.63;2.65;;;14.20;70.90;;;;;;5116188;28;20015;-37
2022/06/15 02:01:50;;;;;;;6.47;3.08;;;14.20;71.10;;;;;;5116265;27;20374;-37
2022/06/15 02:04:28;;;;;;;5.60;2.58;;;14.10;71.00;;;;;;5116015;28;20024;-37
2022/06/15 02:07:09;;;;;;;6.57;2.83;;;14.10;71.10;;;;;;5116515;28;20042;-37
2022/06/15 02:09:46;;;;;;;8.05;2.85;;;14.10;71.40;;;;;;5116454;28;20058;-37
2022/06/15 02:12:15;;;;;;;6.30;3.67;;;14.10;71.50;;;;;;5116248;28;20077;-38
2022/06/15 02:14:46;;;;;;;11.07;3.13;;;14.00;71.40;;;;;;5115916;28;20044;-37
2022/06/15 02:17:21;;;;;;;8.05;2.42;;;14.00;71.60;;;;;;5115832;28;20016;-37
2022/06/15 02:19:54;;;;;;;3.97;1.98;;;13.90;71.70;;;;;;5115830;28;20048;-37
2022/06/15 02:22:23;;;;;;;7.13;2.75;;;14.00;71.80;;;;;;5115609;28;20372;-37
2022/06/15 02:24:53;;;;;;;10.05;2.67;;;14.00;71.80;;;;;;5115490;28;20024;-37
2022/06/15 02:27:22;;;;;;;5.20;3.33;;;13.90;71.90;;;;;;5114322;28;20233;-37
2022/06/15 02:29:51;;;;;;;9.75;3.22;;;13.90;72.00;;;;;;5115500;28;20024;-37
2022/06/15 02:32:18;;;;;;;8.95;3.22;;;13.80;72.20;;;;;;5115645;28;20016;-37
2022/06/15 02:34:44;;;;;;;6.55;2.67;;;13.80;72.20;;;;;;5115427;28;20044;-37
2022/06/15 02:37:10;;;;;;;6.05;2.72;;;13.80;72.40;;;;;;5115390;28;20077;-37
2022/06/15 02:39:36;;;;;;;9.43;3.28;;;13.80;72.50;;;;;;5113987;28;20490;-38
2022/06/15 02:42:44;;;;;;;8.10;3.08;;;13.70;72.70;;;;;;5115324;28;20116;-38
2022/06/15 02:45:15;;;;;;;10.35;3.25;;;13.70;72.80;;;;;;5092857;28;20032;-37
2022/06/15 02:47:42;;;;;;;9.30;4.03;;;13.70;72.80;;;;;;5108275;28;20036;-38
2022/06/15 02:50:11;;;;;;;6.22;3.03;;;13.70;72.80;;;;;;5115408;28;20047;-38
2022/06/15 02:52:48;;;;;;;6.60;3.20;;;13.70;72.90;;;;;;5113941;28;20390;-37
2022/06/15 20:16:14;;;;;;;6.28;2.53;;;22.00;43.60;;;;;;5111246;27;20380;-38
2022/06/15 20:18:40;;;;;;;4.70;2.45;;;22.00;44.00;;;;;;5110888;28;20032;-37
2022/06/15 20:21:09;;;;;;;6.40;2.22;;;22.10;44.00;;;;;;5110877;28;20020;-36
2022/06/15 20:23:39;;;;;;;4.97;2.60;;;22.00;44.00;;;;;;5110773;28;20020;-36
2022/06/15 20:26:09;;;;;;;4.03;2.50;;;22.00;44.20;;;;;;5110650;28;20055;-36
2022/06/15 20:28:39;;;;;;;5.82;2.45;;;22.00;44.40;;;;;;5110615;28;20027;-36
2022/06/15 20:31:12;;;;;;;6.35;2.92;;;21.90;44.50;;;;;;5111148;28;20379;-36
2022/06/15 20:33:39;;;;;;;5.32;2.30;;;21.80;44.80;;;;;;5111042;28;20016;-36
2022/06/15 20:36:04;;;;;;;9.15;2.60;;;21.80;44.80;;;;;;5109632;28;20024;-38
2022/06/15 20:38:30;;;;;;;6.55;2.47;;;21.80;45.00;;;;;;5110735;28;20020;-37
2022/06/15 20:40:56;;;;;;;6.90;4.30;;;21.80;45.20;;;;;;5108989;28;20046;-37
2022/06/15 20:43:24;;;;;;;4.82;1.80;;;21.70;45.40;;;;;;5110401;28;20025;-37
2022/06/15 20:45:52;;;;;;;2.25;1.90;;;21.60;45.70;;;;;;5110058;28;20032;-37
2022/06/15 20:48:18;;;;;;;6.18;2.33;;;21.50;46.20;;;;;;5110395;28;20406;-38
2022/06/15 20:50:48;;;;;;;4.47;2.08;;;21.40;46.90;;;;;;5110484;28;20027;-37
2022/06/15 20:53:16;;;;;;;2.85;1.95;;;21.30;47.50;;;;;;5110046;28;20027;-37
2022/06/15 20:58:27;;;;;;;5.97;2.45;;;21.00;49.00;;;;;;5110949;28;20031;-37
2022/06/15 21:00:53;;;;;;;5.07;2.53;;;21.00;49.40;;;;;;5110662;28;20027;-38
2022/06/15 21:03:19;;;;;;;4.65;2.15;;;20.90;50.00;;;;;;5110900;28;20364;-37
2022/06/15 21:05:45;;;;;;;4.65;1.95;;;20.80;50.50;;;;;;5110507;28;20050;-42
2022/06/15 21:08:12;;;;;;;3.35;1.85;;;20.70;51.10;;;;;;5110358;28;20489;-37
2022/06/15 21:18:52;;;;;;;5.63;2.22;;;20.40;52.90;;;;;;5110290;28;20064;-41
2022/06/15 21:21:17;;;;;;;4.80;2.40;;;20.30;53.40;;;;;;5109841;28;20032;-38
2022/06/15 21:23:43;;;;;;;5.03;2.05;;;20.30;53.70;;;;;;5109792;28;20094;-37
2022/06/15 21:26:09;;;;;;;6.43;2.22;;;20.30;54.00;;;;;;5104321;28;20024;-38
2022/06/15 21:28:36;;;;;;;4.38;3.00;;;20.20;54.40;;;;;;5096391;28;20024;-38
2022/06/15 21:31:03;;;;;;;3.78;2.08;;;20.10;54.70;;;;;;5096341;28;20036;-39
2022/06/15 21:33:29;;;;;;;3.30;2.50;;;20.00;55.10;;;;;;5096424;28;20498;-38
2022/06/15 21:35:55;;;;;;;6.45;2.78;;;20.00;55.50;;;;;;5096401;28;20031;-38
2022/06/15 21:38:21;;;;;;;4.57;3.05;;;19.90;55.70;;;;;;5096055;28;20032;-38
2022/06/15 21:40:47;;;;;;;3.72;1.83;;;19.80;56.20;;;;;;5096383;28;20483;-38
2022/06/15 21:43:13;;;;;;;3.50;2.30;;;19.70;56.60;;;;;;5096255;28;20064;-38
2022/06/15 21:45:45;;;;;;;3.17;2.17;;;19.70;56.80;;;;;;5095853;28;20039;-38
2022/06/15 21:48:12;;;;;;;2.95;2.42;;;19.60;57.00;;;;;;5096044;28;20102;-37
2022/06/15 21:50:41;;;;;;;3.28;2.45;;;19.60;57.00;;;;;;5095877;28;20028;-37
2022/06/15 21:53:08;;;;;;;5.28;2.53;;;19.40;57.40;;;;;;5095812;28;20024;-37
2022/06/15 21:55:36;;;;;;;3.67;2.58;;;19.30;57.60;;;;;;5095712;28;20115;-38
2022/06/15 21:58:02;;;;;;;10.02;2.88;;;19.30;57.60;;;;;;5095652;28;20388;-38
2022/06/15 22:00:30;;;;;;;5.97;2.30;;;19.30;57.70;;;;;;5094306;28;20017;-37
2022/06/15 22:02:57;;;;;;;6.82;3.25;;;19.30;57.80;;;;;;5095622;28;20020;-37
2022/06/15 22:05:23;;;;;;;6.78;2.47;;;19.30;57.60;;;;;;5094111;28;20036;-37
2022/06/15 22:07:49;;;;;;;5.57;2.30;;;19.20;57.50;;;;;;5095239;28;20099;-38
2022/06/15 22:10:17;;;;;;;7.97;2.80;;;19.20;57.50;;;;;;5095163;28;20032;-38
2022/06/15 22:12:43;;;;;;;5.00;2.25;;;19.10;57.40;;;;;;5095401;28;20024;-37
2022/06/15 22:15:10;;;;;;;6.22;2.50;;;19.00;57.80;;;;;;5094900;28;20047;-37
2022/06/15 22:17:36;;;;;;;4.85;2.30;;;19.00;57.60;;;;;;5094928;28;20199;-37
2022/06/15 22:20:05;;;;;;;5.25;2.85;;;18.90;57.60;;;;;;5095171;28;20058;-38
2022/06/15 22:22:33;;;;;;;7.60;2.72;;;19.00;57.50;;;;;;5095285;28;20024;-38
2022/06/15 22:25:00;;;;;;;7.63;4.20;;;19.00;57.50;;;;;;5095348;28;20035;-39
2022/06/15 22:27:26;;;;;;;4.88;3.00;;;19.00;57.50;;;;;;5095129;28;20389;-37
2022/06/15 22:29:51;;;;;;;4.38;2.15;;;18.90;57.60;;;;;;5095067;28;20548;-37
2022/06/15 22:32:17;;;;;;;4.78;3.00;;;19.00;57.70;;;;;;5094128;28;20028;-37
2022/06/15 22:34:43;;;;;;;4.53;2.60;;;18.90;57.70;;;;;;5094920;28;20530;-38
2022/06/15 22:37:09;;;;;;;7.25;2.55;;;18.90;57.60;;;;;;5094675;28;20016;-38
2022/06/15 22:39:34;;;;;;;4.00;2.15;;;18.80;57.70;;;;;;5094301;28;20376;-37
2022/06/15 22:42:00;;;;;;;4.55;2.20;;;18.80;57.70;;;;;;5094691;28;20472;-38
2022/06/15 22:44:26;;;;;;;5.13;2.67;;;18.80;57.40;;;;;;5094534;28;20024;-37
2022/06/15 22:46:51;;;;;;;3.90;2.08;;;18.70;57.60;;;;;;5094669;28;20024;-37
2022/06/15 22:52:02;;;;;;;6.05;2.47;;;18.60;57.70;;;;;;5094616;28;20047;-37
2022/06/15 22:54:29;;;;;;;4.22;2.25;;;18.60;57.80;;;;;;5094396;28;20020;-37
2022/06/15 22:56:56;;;;;;;9.35;2.88;;;18.50;57.80;;;;;;5094631;28;20077;-37
2022/06/15 22:59:21;;;;;;;4.05;2.08;;;18.50;57.70;;;;;;5094610;28;20085;-37
2022/06/15 23:01:48;;;;;;;5.18;2.60;;;18.40;57.70;;;;;;5094405;28;20020;-37
2022/06/15 23:04:14;;;;;;;3.60;1.95;;;18.20;57.90;;;;;;5094589;28;20119;-37
2022/06/15 23:06:39;;;;;;;4.65;2.10;;;18.20;58.00;;;;;;5094509;28;20467;-37
2022/06/15 23:09:06;;;;;;;5.53;2.90;;;18.20;58.00;;;;;;5094111;28;20032;-37
2022/06/15 23:11:31;;;;;;;5.05;2.30;;;18.10;57.70;;;;;;5094322;28;20020;-37
2022/06/15 23:13:57;;;;;;;6.13;2.63;;;18.10;57.80;;;;;;5092928;28;20031;-38
2022/06/15 23:16:23;;;;;;;4.63;2.60;;;18.00;57.70;;;;;;5094775;28;20104;-37
2022/06/15 23:18:49;;;;;;;2.83;2.25;;;18.00;57.70;;;;;;5094251;28;20427;-37
2022/06/15 23:21:24;;;;;;;4.60;2.13;;;18.00;57.80;;;;;;5093955;28;20460;-37
2022/06/15 23:23:49;;;;;;;7.22;3.10;;;17.90;57.80;;;;;;5094292;28;20107;-37
2022/06/15 23:26:16;;;;;;;8.07;3.03;;;17.80;57.80;;;;;;5093893;28;20108;-38
2022/06/15 23:28:42;;;;;;;6.30;2.70;;;17.70;58.20;;;;;;5094079;28;20418;-37
2022/06/15 23:31:12;;;;;;;6.15;2.40;;;17.70;58.20;;;;;;5094004;28;20084;-37
2022/06/15 23:33:39;;;;;;;6.25;2.83;;;17.50;58.10;;;;;;5094191;28;20024;-38
2022/06/15 23:36:10;;;;;;;3.40;2.80;;;17.40;58.50;;;;;;5093886;28;20159;-37
2022/06/15 23:38:36;;;;;;;5.63;2.53;;;17.50;58.40;;;;;;5093906;28;20137;-36
2022/06/15 23:41:06;;;;;;;4.85;2.88;;;17.40;58.30;;;;;;5093631;28;20044;-37
2022/06/15 23:43:32;;;;;;;;;;;17.40;58.20;;;;;;5095236;28;20027;-37
2022/06/15 23:48:41;;;;;;;2.28;1.77;;;17.30;58.30;;;;;;5093508;28;20070;-37
2022/06/15 23:51:07;;;;;;;5.68;2.47;;;17.30;58.40;;;;;;5093964;28;20032;-37
2022/06/15 23:53:33;;;;;;;3.58;2.22;;;17.30;58.30;;;;;;5093607;28;20024;-37
2022/06/15 23:55:58;;;;;;;5.75;2.47;;;17.20;58.50;;;;;;5093984;28;20053;-37
2022/06/15 23:58:24;;;;;;;4.18;2.63;;;17.20;58.40;;;;;;5093794;28;20020;-40
